sensor_id;sensor_type;location;lat;lon;timestamp;pressure;altitude;pressure_sealevel;temperature;humidity
54666;BME280;40566;50.006;36.180;2023-02-28T00:04:20;100550.84;;;0.96;75.16
54666;BME280;40566;50.006;36.180;2023-02-28T00:09:20;100550.75;;;0.91;75.24
54666;BME280;40566;50.006;36.180;2023-02-28T00:14:21;100549.94;;;0.94;74.95
54666;BME280;40566;50.006;36.180;2023-02-28T00:19:21;100544.09;;;0.98;74.75
54666;BME280;40566;50.006;36.180;2023-02-28T00:24:22;100542.97;;;0.87;74.93
54666;BME280;40566;50.006;36.180;2023-02-28T00:29:22;100533.63;;;0.86;74.63
54666;BME280;40566;50.006;36.180;2023-02-28T00:34:23;100525.78;;;0.78;74.85
54666;BME280;40566;50.006;36.180;2023-02-28T00:39:24;100512.78;;;0.66;74.89
54666;BME280;40566;50.006;36.180;2023-02-28T00:44:24;100505.69;;;0.54;75.09
54666;BME280;40566;50.006;36.180;2023-02-28T00:49:26;100511.44;;;0.47;74.95
54666;BME280;40566;50.006;36.180;2023-02-28T00:54:26;100514.53;;;0.35;75.29
54666;BME280;40566;50.006;36.180;2023-02-28T00:59:27;100517.56;;;0.22;75.37
54666;BME280;40566;50.006;36.180;2023-02-28T01:04:28;100514.31;;;0.27;74.97
54666;BME280;40566;50.006;36.180;2023-02-28T01:09:29;100522.75;;;0.25;74.87
54666;BME280;40566;50.006;36.180;2023-02-28T01:14:30;100519.19;;;0.19;74.79
54666;BME280;40566;50.006;36.180;2023-02-28T01:19:30;100531.00;;;0.16;74.92
54666;BME280;40566;50.006;36.180;2023-02-28T01:24:31;100533.56;;;0.17;74.49
54666;BME280;40566;50.006;36.180;2023-02-28T01:29:32;100547.13;;;0.16;74.64
54666;BME280;40566;50.006;36.180;2023-02-28T01:34:33;100542.16;;;0.21;74.28
54666;BME280;40566;50.006;36.180;2023-02-28T01:39:33;100552.31;;;0.21;74.19
54666;BME280;40566;50.006;36.180;2023-02-28T01:45:04;100547.84;;;0.12;74.25
54666;BME280;40566;50.006;36.180;2023-02-28T01:50:13;100550.19;;;0.05;74.36
54666;BME280;40566;50.006;36.180;2023-02-28T01:55:15;100567.53;;;-0.11;74.57
54666;BME280;40566;50.006;36.180;2023-02-28T02:00:18;100563.38;;;-0.09;74.26
54666;BME280;40566;50.006;36.180;2023-02-28T02:05:22;100577.66;;;-0.12;74.26
54666;BME280;40566;50.006;36.180;2023-02-28T02:10:41;100585.19;;;-0.17;74.19
54666;BME280;40566;50.006;36.180;2023-02-28T02:47:53;100604.09;;;-0.07;73.36
54666;BME280;40566;50.006;36.180;2023-02-28T02:52:56;100610.03;;;-0.07;73.25
54666;BME280;40566;50.006;36.180;2023-02-28T02:58:03;100608.91;;;-0.16;73.17
54666;BME280;40566;50.006;36.180;2023-02-28T03:03:06;100609.75;;;-0.17;73.36
54666;BME280;40566;50.006;36.180;2023-02-28T03:08:08;100617.44;;;-0.14;73.10
54666;BME280;40566;50.006;36.180;2023-02-28T03:14:01;100631.75;;;-0.18;72.98
54666;BME280;40566;50.006;36.180;2023-02-28T03:29:15;100638.22;;;-0.28;72.82
54666;BME280;40566;50.006;36.180;2023-02-28T03:34:26;100628.06;;;-0.28;72.70
54666;BME280;40566;50.006;36.180;2023-02-28T03:39:37;100628.88;;;-0.29;72.61
54666;BME280;40566;50.006;36.180;2023-02-28T03:44:45;100631.38;;;-0.30;72.39
54666;BME280;40566;50.006;36.180;2023-02-28T03:49:57;100637.91;;;-0.38;72.77
54666;BME280;40566;50.006;36.180;2023-02-28T03:55:03;100632.16;;;-0.33;72.64
54666;BME280;40566;50.006;36.180;2023-02-28T04:00:12;100638.94;;;-0.33;72.80
54666;BME280;40566;50.006;36.180;2023-02-28T04:05:14;100638.31;;;-0.25;72.31
54666;BME280;40566;50.006;36.180;2023-02-28T04:10:16;100643.41;;;-0.25;72.38
54666;BME280;40566;50.006;36.180;2023-02-28T04:15:17;100649.41;;;-0.23;71.94
54666;BME280;40566;50.006;36.180;2023-02-28T04:20:17;100641.13;;;-0.44;72.38
54666;BME280;40566;50.006;36.180;2023-02-28T04:25:18;100638.34;;;-0.52;72.70
54666;BME280;40566;50.006;36.180;2023-02-28T04:30:18;100640.06;;;-0.51;72.40
54666;BME280;40566;50.006;36.180;2023-02-28T04:35:19;100642.28;;;-0.34;72.05
54666;BME280;40566;50.006;36.180;2023-02-28T04:40:19;100642.09;;;-0.41;72.11
54666;BME280;40566;50.006;36.180;2023-02-28T04:45:20;100633.41;;;-0.47;72.24
54666;BME280;40566;50.006;36.180;2023-02-28T04:50:20;100652.13;;;-0.44;72.08
54666;BME280;40566;50.006;36.180;2023-02-28T04:55:21;100643.41;;;-0.52;71.95
54666;BME280;40566;50.006;36.180;2023-02-28T05:00:22;100645.81;;;-0.56;72.15
54666;BME280;40566;50.006;36.180;2023-02-28T05:05:22;100658.06;;;-0.45;71.66
54666;BME280;40566;50.006;36.180;2023-02-28T05:10:23;100667.38;;;-0.44;71.42
54666;BME280;40566;50.006;36.180;2023-02-28T05:15:24;100670.50;;;-0.52;71.41
54666;BME280;40566;50.006;36.180;2023-02-28T05:20:24;100675.53;;;-0.54;71.63
54666;BME280;40566;50.006;36.180;2023-02-28T05:25:25;100684.50;;;-0.38;71.29
54666;BME280;40566;50.006;36.180;2023-02-28T05:30:26;100698.19;;;-0.34;70.79
54666;BME280;40566;50.006;36.180;2023-02-28T05:35:26;100703.09;;;-0.41;71.01
54666;BME280;40566;50.006;36.180;2023-02-28T05:40:27;100711.16;;;-0.27;70.96
54666;BME280;40566;50.006;36.180;2023-02-28T05:45:27;100707.75;;;0.00;70.00
54666;BME280;40566;50.006;36.180;2023-02-28T05:50:28;100722.22;;;0.03;70.08
54666;BME280;40566;50.006;36.180;2023-02-28T05:55:29;100707.38;;;0.16;69.79
54666;BME280;40566;50.006;36.180;2023-02-28T06:00:29;100705.69;;;0.17;69.71
54666;BME280;40566;50.006;36.180;2023-02-28T06:05:30;100695.84;;;0.28;69.42
54666;BME280;40566;50.006;36.180;2023-02-28T06:10:30;100691.09;;;0.40;69.26
54666;BME280;40566;50.006;36.180;2023-02-28T06:15:31;100698.19;;;0.50;69.16
54666;BME280;40566;50.006;36.180;2023-02-28T06:20:32;100700.91;;;0.56;69.00
54666;BME280;40566;50.006;36.180;2023-02-28T06:25:33;100691.03;;;0.69;68.66
54666;BME280;40566;50.006;36.180;2023-02-28T06:30:34;100685.47;;;0.82;68.56
54666;BME280;40566;50.006;36.180;2023-02-28T06:35:34;100693.22;;;0.87;68.18
54666;BME280;40566;50.006;36.180;2023-02-28T06:40:35;100695.09;;;0.92;68.25
54666;BME280;40566;50.006;36.180;2023-02-28T06:45:36;100690.88;;;0.94;68.24
54666;BME280;40566;50.006;36.180;2023-02-28T06:50:36;100687.38;;;0.91;68.20
54666;BME280;40566;50.006;36.180;2023-02-28T06:55:39;100692.19;;;1.12;68.03
54666;BME280;40566;50.006;36.180;2023-02-28T07:00:43;100690.91;;;1.28;67.69
54666;BME280;40566;50.006;36.180;2023-02-28T07:05:45;100687.00;;;1.41;67.11
54666;BME280;40566;50.006;36.180;2023-02-28T07:10:45;100690.09;;;1.30;67.54
54666;BME280;40566;50.006;36.180;2023-02-28T07:15:54;100684.84;;;1.24;67.67
54666;BME280;40566;50.006;36.180;2023-02-28T07:20:55;100682.59;;;1.35;67.55
54666;BME280;40566;50.006;36.180;2023-02-28T07:25:56;100688.78;;;1.45;67.00
54666;BME280;40566;50.006;36.180;2023-02-28T07:30:57;100693.94;;;1.48;67.03
54666;BME280;40566;50.006;36.180;2023-02-28T07:36:05;100694.81;;;1.48;66.89
54666;BME280;40566;50.006;36.180;2023-02-28T07:41:05;100688.28;;;1.59;66.80
54666;BME280;40566;50.006;36.180;2023-02-28T07:46:11;100680.19;;;1.76;66.65
54666;BME280;40566;50.006;36.180;2023-02-28T07:51:12;100674.75;;;2.00;65.96
54666;BME280;40566;50.006;36.180;2023-02-28T07:56:13;100681.66;;;2.04;65.63
54666;BME280;40566;50.006;36.180;2023-02-28T08:01:13;100689.41;;;2.09;65.35
54666;BME280;40566;50.006;36.180;2023-02-28T08:06:17;100702.47;;;1.85;65.79
54666;BME280;40566;50.006;36.180;2023-02-28T08:11:18;100703.66;;;1.63;66.38
54666;BME280;40566;50.006;36.180;2023-02-28T08:16:19;100700.34;;;1.67;66.21
54666;BME280;40566;50.006;36.180;2023-02-28T08:21:22;100707.09;;;1.65;66.00
54666;BME280;40566;50.006;36.180;2023-02-28T08:26:22;100700.78;;;1.15;66.37
54666;BME280;40566;50.006;36.180;2023-02-28T08:31:23;100707.53;;;1.13;66.77
54666;BME280;40566;50.006;36.180;2023-02-28T08:36:24;100702.84;;;1.29;65.93
54666;BME280;40566;50.006;36.180;2023-02-28T08:41:25;100696.16;;;1.34;65.69
54666;BME280;40566;50.006;36.180;2023-02-28T08:46:26;100695.19;;;1.29;65.68
54666;BME280;40566;50.006;36.180;2023-02-28T08:51:28;100683.94;;;1.21;66.03
54666;BME280;40566;50.006;36.180;2023-02-28T08:56:28;100679.34;;;1.42;65.50
54666;BME280;40566;50.006;36.180;2023-02-28T09:01:30;100678.06;;;1.58;65.13
54666;BME280;40566;50.006;36.180;2023-02-28T09:06:31;100676.50;;;1.65;64.96
54666;BME280;40566;50.006;36.180;2023-02-28T09:11:33;100669.81;;;1.70;64.85
54666;BME280;40566;50.006;36.180;2023-02-28T09:16:34;100663.44;;;1.89;64.67
54666;BME280;40566;50.006;36.180;2023-02-28T09:21:35;100652.91;;;2.11;63.95
54666;BME280;40566;50.006;36.180;2023-02-28T09:26:37;100665.53;;;2.07;64.29
54666;BME280;40566;50.006;36.180;2023-02-28T09:31:37;100659.78;;;1.77;64.72
54666;BME280;40566;50.006;36.180;2023-02-28T09:36:38;100651.22;;;1.74;64.83
54666;BME280;40566;50.006;36.180;2023-02-28T09:41:44;100654.59;;;1.36;65.19
54666;BME280;40566;50.006;36.180;2023-02-28T09:46:54;100644.97;;;1.26;65.68
54666;BME280;40566;50.006;36.180;2023-02-28T09:52:00;100637.56;;;1.35;65.10
54666;BME280;40566;50.006;36.180;2023-02-28T09:57:05;100629.13;;;1.38;65.04
54666;BME280;40566;50.006;36.180;2023-02-28T10:02:39;100621.22;;;1.27;65.56
54666;BME280;40566;50.006;36.180;2023-02-28T10:13:05;100614.06;;;1.12;65.34
54666;BME280;40566;50.006;36.180;2023-02-28T10:18:11;100608.06;;;1.09;65.29
54666;BME280;40566;50.006;36.180;2023-02-28T10:23:25;100591.00;;;1.06;65.25
54666;BME280;40566;50.006;36.180;2023-02-28T10:28:29;100584.63;;;1.24;64.88
54666;BME280;40566;50.006;36.180;2023-02-28T10:33:33;100582.78;;;1.54;64.15
54666;BME280;40566;50.006;36.180;2023-02-28T10:38:36;100581.19;;;1.59;63.83
54666;BME280;40566;50.006;36.180;2023-02-28T10:43:39;100574.25;;;1.52;64.04
54666;BME280;40566;50.006;36.180;2023-02-28T10:48:41;100582.78;;;1.54;64.22
54666;BME280;40566;50.006;36.180;2023-02-28T11:03:52;100557.88;;;1.06;64.97
54666;BME280;40566;50.006;36.180;2023-02-28T11:08:55;100548.03;;;0.85;65.11
54666;BME280;40566;50.006;36.180;2023-02-28T11:14:03;100544.00;;;0.93;64.87
54666;BME280;40566;50.006;36.180;2023-02-28T11:19:17;100546.50;;;0.92;64.71
54666;BME280;40566;50.006;36.180;2023-02-28T11:24:29;100548.66;;;0.76;65.30
54666;BME280;40566;50.006;36.180;2023-02-28T11:29:33;100540.88;;;0.70;65.15
54666;BME280;40566;50.006;36.180;2023-02-28T11:34:36;100538.28;;;0.67;65.37
54666;BME280;40566;50.006;36.180;2023-02-28T11:39:37;100540.50;;;0.90;65.02
54666;BME280;40566;50.006;36.180;2023-02-28T11:44:52;100538.38;;;1.07;64.38
54666;BME280;40566;50.006;36.180;2023-02-28T11:50:17;100539.38;;;1.13;64.31
54666;BME280;40566;50.006;36.180;2023-02-28T11:55:26;100533.69;;;1.25;64.36
54666;BME280;40566;50.006;36.180;2023-02-28T12:06:04;100527.09;;;0.97;64.88
54666;BME280;40566;50.006;36.180;2023-02-28T12:16:41;100522.59;;;0.87;65.08
54666;BME280;40566;50.006;36.180;2023-02-28T12:27:17;100511.22;;;0.72;65.28
54666;BME280;40566;50.006;36.180;2023-02-28T12:32:27;100502.91;;;0.79;65.44
54666;BME280;40566;50.006;36.180;2023-02-28T12:37:36;100502.78;;;0.75;65.36
54666;BME280;40566;50.006;36.180;2023-02-28T12:42:48;100502.22;;;0.87;65.12
54666;BME280;40566;50.006;36.180;2023-02-28T12:48:04;100500.19;;;1.08;64.78
54666;BME280;40566;50.006;36.180;2023-02-28T12:53:10;100493.09;;;0.96;65.14
54666;BME280;40566;50.006;36.180;2023-02-28T13:03:57;100487.25;;;0.64;65.83
54666;BME280;40566;50.006;36.180;2023-02-28T13:19:30;100481.50;;;0.36;65.95
54666;BME280;40566;50.006;36.180;2023-02-28T13:24:52;100468.66;;;0.32;66.00
54666;BME280;40566;50.006;36.180;2023-02-28T13:29:53;100467.88;;;0.34;65.89
54666;BME280;40566;50.006;36.180;2023-02-28T13:39:56;100467.22;;;0.10;66.17
54666;BME280;40566;50.006;36.180;2023-02-28T14:11:28;100429.78;;;0.04;66.05
54666;BME280;40566;50.006;36.180;2023-02-28T14:16:41;100425.72;;;0.11;66.21
54666;BME280;40566;50.006;36.180;2023-02-28T14:37:42;100411.31;;;0.11;66.21
54666;BME280;40566;50.006;36.180;2023-02-28T14:42:59;100396.34;;;-0.11;66.55
54666;BME280;40566;50.006;36.180;2023-02-28T14:48:01;100383.47;;;-0.16;66.55
54666;BME280;40566;50.006;36.180;2023-02-28T14:53:03;100380.78;;;-0.22;66.69
54666;BME280;40566;50.006;36.180;2023-02-28T14:58:06;100369.66;;;-0.27;66.58
54666;BME280;40566;50.006;36.180;2023-02-28T15:03:22;100364.47;;;-0.30;66.72
54666;BME280;40566;50.006;36.180;2023-02-28T15:08:24;100378.75;;;-0.35;66.61
54666;BME280;40566;50.006;36.180;2023-02-28T15:13:51;100380.09;;;-0.48;66.92
54666;BME280;40566;50.006;36.180;2023-02-28T15:18:53;100381.66;;;-0.53;67.29
54666;BME280;40566;50.006;36.180;2023-02-28T15:24:10;100370.25;;;-0.68;67.44
54666;BME280;40566;50.006;36.180;2023-02-28T15:29:19;100362.41;;;-0.75;67.52
54666;BME280;40566;50.006;36.180;2023-02-28T15:34:41;100380.28;;;-0.72;67.62
54666;BME280;40566;50.006;36.180;2023-02-28T15:39:43;100390.34;;;-0.77;67.52
54666;BME280;40566;50.006;36.180;2023-02-28T15:44:45;100392.78;;;-0.80;67.45
54666;BME280;40566;50.006;36.180;2023-02-28T15:49:47;100395.66;;;-0.68;67.36
54666;BME280;40566;50.006;36.180;2023-02-28T15:54:49;100398.84;;;-0.75;67.34
54666;BME280;40566;50.006;36.180;2023-02-28T15:59:56;100413.00;;;-0.83;67.47
54666;BME280;40566;50.006;36.180;2023-02-28T16:09:59;100397.31;;;-0.98;67.50
54666;BME280;40566;50.006;36.180;2023-02-28T16:15:05;100395.91;;;-0.89;67.49
54666;BME280;40566;50.006;36.180;2023-02-28T16:20:21;100408.50;;;-0.92;67.33
54666;BME280;40566;50.006;36.180;2023-02-28T16:25:33;100400.63;;;-1.01;67.51
54666;BME280;40566;50.006;36.180;2023-02-28T16:30:34;100397.44;;;-0.94;67.50
54666;BME280;40566;50.006;36.180;2023-02-28T16:35:35;100396.44;;;-1.01;67.77
54666;BME280;40566;50.006;36.180;2023-02-28T16:40:36;100394.63;;;-1.03;67.57
54666;BME280;40566;50.006;36.180;2023-02-28T16:45:37;100398.81;;;-1.05;67.43
54666;BME280;40566;50.006;36.180;2023-02-28T16:50:37;100400.59;;;-1.03;67.54
54666;BME280;40566;50.006;36.180;2023-02-28T16:55:39;100390.63;;;-0.96;67.32
54666;BME280;40566;50.006;36.180;2023-02-28T17:00:40;100382.94;;;-0.98;67.36
54666;BME280;40566;50.006;36.180;2023-02-28T17:05:41;100379.78;;;-0.91;67.27
54666;BME280;40566;50.006;36.180;2023-02-28T17:10:42;100363.16;;;-0.80;67.03
54666;BME280;40566;50.006;36.180;2023-02-28T17:15:43;100356.16;;;-0.88;67.27
54666;BME280;40566;50.006;36.180;2023-02-28T17:20:45;100359.94;;;-1.04;67.48
54666;BME280;40566;50.006;36.180;2023-02-28T17:25:47;100348.47;;;-1.20;67.76
54666;BME280;40566;50.006;36.180;2023-02-28T17:30:53;100352.88;;;-1.13;67.67
54666;BME280;40566;50.006;36.180;2023-02-28T17:35:54;100350.50;;;-1.08;67.63
54666;BME280;40566;50.006;36.180;2023-02-28T17:40:55;100338.59;;;-1.09;67.75
54666;BME280;40566;50.006;36.180;2023-02-28T17:45:57;100336.72;;;-1.16;67.65
54666;BME280;40566;50.006;36.180;2023-02-28T17:50:58;100320.38;;;-1.25;67.90
54666;BME280;40566;50.006;36.180;2023-02-28T17:55:59;100331.38;;;-1.26;67.90
54666;BME280;40566;50.006;36.180;2023-02-28T18:00:59;100323.88;;;-1.21;67.75
54666;BME280;40566;50.006;36.180;2023-02-28T18:06:00;100327.06;;;-1.28;67.74
54666;BME280;40566;50.006;36.180;2023-02-28T18:11:02;100332.34;;;-1.21;67.66
54666;BME280;40566;50.006;36.180;2023-02-28T18:16:02;100344.34;;;-1.16;67.61
54666;BME280;40566;50.006;36.180;2023-02-28T18:21:04;100345.19;;;-1.16;67.48
54666;BME280;40566;50.006;36.180;2023-02-28T18:26:06;100333.00;;;-1.28;67.59
54666;BME280;40566;50.006;36.180;2023-02-28T18:31:08;100338.44;;;-1.44;67.98
54666;BME280;40566;50.006;36.180;2023-02-28T18:36:09;100331.31;;;-1.56;68.06
54666;BME280;40566;50.006;36.180;2023-02-28T18:41:11;100350.47;;;-1.66;68.12
54666;BME280;40566;50.006;36.180;2023-02-28T18:46:13;100336.28;;;-1.59;68.01
54666;BME280;40566;50.006;36.180;2023-02-28T18:51:18;100331.94;;;-1.63;67.86
54666;BME280;40566;50.006;36.180;2023-02-28T18:56:22;100329.63;;;-1.83;67.93
54666;BME280;40566;50.006;36.180;2023-02-28T19:01:28;100323.34;;;-1.94;67.95
54666;BME280;40566;50.006;36.180;2023-02-28T19:06:33;100318.94;;;-2.00;68.21
54666;BME280;40566;50.006;36.180;2023-02-28T19:11:34;100321.81;;;-2.16;68.22
54666;BME280;40566;50.006;36.180;2023-02-28T19:16:35;100327.13;;;-2.34;68.77
54666;BME280;40566;50.006;36.180;2023-02-28T19:21:36;100317.06;;;-2.32;68.56
54666;BME280;40566;50.006;36.180;2023-02-28T19:26:36;100324.34;;;-2.42;68.70
54666;BME280;40566;50.006;36.180;2023-02-28T19:31:37;100320.84;;;-2.45;68.64
54666;BME280;40566;50.006;36.180;2023-02-28T19:36:38;100306.06;;;-2.57;68.94
54666;BME280;40566;50.006;36.180;2023-02-28T19:41:39;100309.63;;;-2.52;68.66
54666;BME280;40566;50.006;36.180;2023-02-28T19:46:39;100306.34;;;-2.49;68.48
54666;BME280;40566;50.006;36.180;2023-02-28T19:51:40;100296.63;;;-2.63;68.94
54666;BME280;40566;50.006;36.180;2023-02-28T19:56:40;100280.56;;;-2.63;68.68
54666;BME280;40566;50.006;36.180;2023-02-28T20:01:41;100261.63;;;-2.74;68.94
54666;BME280;40566;50.006;36.180;2023-02-28T20:06:42;100242.59;;;-2.87;69.36
54666;BME280;40566;50.006;36.180;2023-02-28T20:11:43;100237.22;;;-2.96;69.47
54666;BME280;40566;50.006;36.180;2023-02-28T20:16:44;100209.19;;;-3.03;69.55
54666;BME280;40566;50.006;36.180;2023-02-28T20:21:45;100207.25;;;-3.10;69.63
54666;BME280;40566;50.006;36.180;2023-02-28T20:26:46;100208.63;;;-3.20;70.04
54666;BME280;40566;50.006;36.180;2023-02-28T20:31:46;100215.66;;;-3.11;69.56
54666;BME280;40566;50.006;36.180;2023-02-28T20:36:48;100213.97;;;-3.10;69.37
54666;BME280;40566;50.006;36.180;2023-02-28T20:41:48;100211.28;;;-3.15;69.46
54666;BME280;40566;50.006;36.180;2023-02-28T20:46:49;100211.13;;;-3.20;69.50
54666;BME280;40566;50.006;36.180;2023-02-28T20:51:49;100205.97;;;-3.23;69.51
54666;BME280;40566;50.006;36.180;2023-02-28T20:56:50;100216.78;;;-3.27;69.37
54666;BME280;40566;50.006;36.180;2023-02-28T21:01:50;100210.00;;;-3.28;69.50
54666;BME280;40566;50.006;36.180;2023-02-28T21:06:52;100203.09;;;-3.32;69.40
54666;BME280;40566;50.006;36.180;2023-02-28T21:11:53;100194.50;;;-3.37;69.49
54666;BME280;40566;50.006;36.180;2023-02-28T21:16:54;100206.94;;;-3.43;69.73
54666;BME280;40566;50.006;36.180;2023-02-28T21:21:54;100195.91;;;-3.45;69.78
54666;BME280;40566;50.006;36.180;2023-02-28T21:26:55;100178.22;;;-3.44;69.79
54666;BME280;40566;50.006;36.180;2023-02-28T21:31:56;100170.66;;;-3.44;69.70
54666;BME280;40566;50.006;36.180;2023-02-28T21:36:58;100148.66;;;-3.46;69.97
54666;BME280;40566;50.006;36.180;2023-02-28T21:41:59;100145.13;;;-3.51;70.12
54666;BME280;40566;50.006;36.180;2023-02-28T21:47:02;100144.34;;;-3.49;70.14
54666;BME280;40566;50.006;36.180;2023-02-28T21:52:04;100159.31;;;-3.55;70.24
54666;BME280;40566;50.006;36.180;2023-02-28T21:57:05;100183.78;;;-3.54;70.30
54666;BME280;40566;50.006;36.180;2023-02-28T22:02:07;100162.00;;;-3.50;70.29
54666;BME280;40566;50.006;36.180;2023-02-28T22:21:30;100187.03;;;-2.58;70.40
54666;BME280;40566;50.006;36.180;2023-02-28T22:26:31;100182.50;;;-2.93;71.15
54666;BME280;40566;50.006;36.180;2023-02-28T22:31:33;100180.53;;;-3.02;71.07
54666;BME280;40566;50.006;36.180;2023-02-28T22:36:35;100173.22;;;-3.18;71.13
54666;BME280;40566;50.006;36.180;2023-02-28T22:41:36;100168.78;;;-3.25;71.23
54666;BME280;40566;50.006;36.180;2023-02-28T22:46:37;100155.09;;;-3.30;71.06
54666;BME280;40566;50.006;36.180;2023-02-28T22:51:38;100137.75;;;-3.45;71.36
54666;BME280;40566;50.006;36.180;2023-02-28T22:56:38;100117.97;;;-3.55;71.51
54666;BME280;40566;50.006;36.180;2023-02-28T23:01:39;100134.88;;;-3.54;71.25
54666;BME280;40566;50.006;36.180;2023-02-28T23:06:43;100129.69;;;-3.58;71.23
54666;BME280;40566;50.006;36.180;2023-02-28T23:11:46;100127.34;;;-3.53;71.05
54666;BME280;40566;50.006;36.180;2023-02-28T23:16:50;100128.97;;;-3.55;71.05
54666;BME280;40566;50.006;36.180;2023-02-28T23:21:51;100120.50;;;-3.55;70.82
54666;BME280;40566;50.006;36.180;2023-02-28T23:26:54;100125.19;;;-3.66;71.02
54666;BME280;40566;50.006;36.180;2023-02-28T23:31:56;100109.06;;;-3.70;70.97
54666;BME280;40566;50.006;36.180;2023-02-28T23:36:58;100106.75;;;-3.64;70.93
54666;BME280;40566;50.006;36.180;2023-02-28T23:41:59;100095.00;;;-3.63;70.77
54666;BME280;40566;50.006;36.180;2023-02-28T23:47:01;100080.41;;;-3.70;71.01
54666;BME280;40566;50.006;36.180;2023-02-28T23:52:01;100071.06;;;-3.73;71.22
54666;BME280;40566;50.006;36.180;2023-02-28T23:57:02;100071.97;;;-3.71;71.08
